ROMMA est une association bénévole à but non lucratif. Votre soutien est indispensable : ADHERER à ROMMA ou FAIRE un DON

Nice - (06, Alpes-Maritimes)

Côte-d'Azur (190 m)   Longitude: 07° 14' E   Latitude: 43° 43' N Station partenaire n°136
 

Détail journalier du     <<     >>

Température Precipitation Humidité Pression Vent Dir Rafale Dir. rafale Ensol.
Heure (°C) (mm) (%) (hPa) (km/h) (km/h) (min)
01:00 18.006810076ONO23NNO0
02:00 18.9056100611NNO31NNO0
03:00 18.8051100512NNO32NO0
04:00 18.7046100512NNO34NO0
05:00 17.605110067NNO31NNO0
06:00 18.404610076N21N0
07:00 16.905410074NNO19N0
08:00 16.105110087NO19NO0
09:00 17.2051100811NO27NNO20
10:00 18.704310098NO21NNO60
11:00 21.705010106NNO23NNO60
12:00 22.905310107SSE23OSO60
13:00 22.6050101112S29S60
14:00 21.8055101113S31S60
15:00 21.8055101213SSE32SSE60
16:00 21.6050101211S31SSO60
17:00 20.605510129SSE29S60
18:00 19.605710129SSE21SSE10
19:00 18.406010137S19S10
20:00 17.606110134SSO10S0
21:00 16.906310142O11OSO0
22:00 17.1062101403O0
23:00 16.10671014030
minuit 15.3068101508N0

Graphique du 03-10-2019

 

Serveur OMMA